Time;durP1;ratioP1;P1;durP2;ratioP2;P2;SDS_P1;SDS_P2;PMS_P1;PMS_P2;Temp;Humidity;BMP_temperature;BMP_pressure;BME280_temperature;BME280_humidity;BME280_pressure;Samples;Min_cycle;Max_cycle;Signal;HPM_P1;HPM_P2
2023/12/31 00:01:03;;;;;;;2.05;1.95;;;;;;;4.75;62.71;100167.16;4436474;32;33015;-80
2023/12/31 00:03:31;;;;;;;1.33;1.25;;;;;;;4.90;62.27;100158.22;4434650;32;33559;-80
2023/12/31 00:05:59;;;;;;;2.10;1.90;;;;;;;4.80;62.48;100162.72;4461693;32;33460;-80
2023/12/31 00:08:27;;;;;;;0.73;0.73;;;;;;;4.77;62.41;100166.22;4447266;32;33333;-81
2023/12/31 00:10:54;;;;;;;1.73;0.73;;;;;;;4.64;62.02;100164.66;4461894;32;34517;-81
2023/12/31 00:13:22;;;;;;;1.15;1.05;;;;;;;4.37;63.41;100165.91;4450315;32;33522;-81
2023/12/31 00:15:50;;;;;;;1.67;1.58;;;;;;;4.29;64.08;100155.53;4448357;32;33631;-81
2023/12/31 00:18:18;;;;;;;0.50;0.50;;;;;;;4.49;63.52;100157.03;4447377;32;33081;-81
2023/12/31 00:20:46;;;;;;;0.17;0.17;;;;;;;4.46;63.36;100157.06;4447014;32;33090;-81
2023/12/31 00:23:14;;;;;;;0.25;0.20;;;;;;;4.51;63.48;100152.63;4460985;32;34071;-81
2023/12/31 00:25:42;;;;;;;1.37;1.17;;;;;;;4.44;64.01;100153.63;4462005;32;33465;-81
2023/12/31 00:28:09;;;;;;;0.57;0.57;;;;;;;4.52;64.13;100152.63;4464661;32;33114;-81
2023/12/31 00:30:37;;;;;;;4.85;2.50;;;;;;;4.53;63.41;100149.13;4461984;32;34016;-81
2023/12/31 00:33:05;;;;;;;0.37;0.37;;;;;;;4.59;63.42;100150.78;4457817;32;34757;-81
2023/12/31 00:35:33;;;;;;;1.50;1.35;;;;;;;4.49;63.32;100143.97;4437044;32;33812;-79
2023/12/31 00:38:01;;;;;;;0.62;0.62;;;;;;;4.53;63.64;100143.03;4459620;32;33445;-79
2023/12/31 00:40:30;;;;;;;0.43;0.43;;;;;;;4.36;63.91;100141.50;4437134;32;34677;-79
2023/12/31 00:42:58;;;;;;;1.35;1.23;;;;;;;4.41;63.61;100144.03;4447481;32;33353;-79
2023/12/31 00:45:25;;;;;;;2.15;1.58;;;;;;;4.42;63.96;100135.34;4447204;32;33938;-81
2023/12/31 00:47:53;;;;;;;2.72;1.05;;;;;;;4.39;63.67;100139.75;4466217;32;33534;-81
2023/12/31 00:50:21;;;;;;;1.37;1.27;;;;;;;4.47;63.53;100137.91;4451764;32;34511;-81
2023/12/31 00:52:48;;;;;;;1.58;0.73;;;;;;;4.53;63.35;100140.41;4434515;32;34053;-82
2023/12/31 00:55:16;;;;;;;0.68;0.68;;;;;;;4.40;64.44;100136.22;4466880;32;33596;-81
2023/12/31 00:57:44;;;;;;;0.88;0.88;;;;;;;4.49;64.25;100141.34;4437452;32;35320;-81
2023/12/31 01:00:13;;;;;;;0.37;0.25;;;;;;;4.33;64.01;100141.56;4447705;32;33872;-81
2023/12/31 01:02:41;;;;;;;0.30;0.30;;;;;;;4.50;64.00;100148.28;4449113;32;32983;-81
2023/12/31 01:05:08;;;;;;;0.85;0.85;;;;;;;4.55;63.84;100136.03;4466110;32;33758;-81
2023/12/31 01:07:36;;;;;;;1.17;1.08;;;;;;;4.65;63.07;100147.22;4450652;32;33942;-81
2023/12/31 01:10:04;;;;;;;0.40;0.40;;;;;;;4.48;63.87;100147.47;4458048;32;34467;-82
2023/12/31 01:12:32;;;;;;;1.40;1.25;;;;;;;4.43;64.42;100149.28;4453372;32;34599;-81
2023/12/31 01:15:00;;;;;;;0.90;0.90;;;;;;;4.51;63.67;100144.78;4459543;32;33521;-81
2023/12/31 01:17:28;;;;;;;0.75;0.75;;;;;;;4.40;63.79;100147.56;4445796;32;33300;-81
2023/12/31 01:19:56;;;;;;;0.77;0.77;;;;;;;4.52;63.37;100147.41;4447357;32;32733;-81
2023/12/31 01:22:23;;;;;;;0.28;0.28;;;;;;;4.33;63.96;100143.31;4436910;32;33173;-82
2023/12/31 01:24:51;;;;;;;0.60;0.60;;;;;;;4.32;63.89;100146.78;4436402;32;33951;-81
2023/12/31 01:27:20;;;;;;;0.28;0.28;;;;;;;4.31;63.84;100148.53;4461072;32;33197;-82
2023/12/31 01:29:47;;;;;;;0.37;0.37;;;;;;;4.40;63.22;100151.91;4461252;32;33551;-82
2023/12/31 01:32:15;;;;;;;0.62;0.62;;;;;;;4.49;63.24;100151.81;4451479;32;33849;-82
2023/12/31 01:34:43;;;;;;;0.65;0.65;;;;;;;4.51;62.95;100139.56;4436992;32;32776;-82
2023/12/31 01:37:11;;;;;;;0.70;0.70;;;;;;;4.40;63.51;100147.56;4434118;32;33150;-82
2023/12/31 01:39:39;;;;;;;0.75;0.75;;;;;;;4.42;63.59;100139.72;4449410;32;33052;-82
2023/12/31 01:42:06;;;;;;;1.20;1.12;;;;;;;4.12;64.75;100141.81;4447152;32;33953;-81
2023/12/31 01:44:34;;;;;;;1.87;1.27;;;;;;;4.25;64.16;100143.38;4459020;32;33628;-82
2023/12/31 01:47:03;;;;;;;0.32;0.32;;;;;;;4.21;63.92;100138.22;4459479;32;33088;-82
2023/12/31 01:49:32;;;;;;;1.85;1.35;;;;;;;4.28;63.81;100130.28;4464575;32;32191;-82
2023/12/31 01:52:02;;;;;;;0.57;0.57;;;;;;;4.16;65.35;100138.28;4462220;32;33019;-82
2023/12/31 01:54:31;;;;;;;3.80;1.92;;;;;;;4.39;64.25;100129.28;4462807;32;34279;-82
2023/12/31 01:56:59;;;;;;;0.75;0.75;;;;;;;4.61;63.29;100125.50;4450756;32;32834;-81
2023/12/31 01:59:27;;;;;;;2.80;1.70;;;;;;;4.46;62.46;100130.91;4448103;32;33031;-82
2023/12/31 02:01:56;;;;;;;2.72;1.95;;;;;;;4.23;63.95;100129.50;4435368;32;33051;-83
2023/12/31 02:04:32;;;;;;;0.75;0.47;;;;;;;4.19;63.69;100135.63;4450056;32;33969;-83
2023/12/31 02:07:00;;;;;;;2.83;2.20;;;;;;;3.88;64.99;100131.63;4450454;32;35896;-83
2023/12/31 02:09:28;;;;;;;0.90;0.90;;;;;;;4.11;64.14;100134.84;4463069;32;33546;-83
2023/12/31 02:11:57;;;;;;;1.80;1.70;;;;;;;4.00;64.54;100121.06;4461330;32;33325;-83
2023/12/31 02:14:25;;;;;;;0.45;0.45;;;;;;;4.24;63.84;100127.72;4450138;32;32753;-83
2023/12/31 02:16:53;;;;;;;0.65;0.65;;;;;;;4.19;64.23;100125.19;4459916;32;32394;-83
2023/12/31 02:19:20;;;;;;;2.08;1.92;;;;;;;4.22;63.21;100126.88;4448731;32;33320;-83
2023/12/31 02:21:48;;;;;;;0.75;0.75;;;;;;;4.27;63.63;100120.72;4462131;32;33090;-83
2023/12/31 02:24:18;;;;;;;0.60;0.55;;;;;;;4.25;63.78;100116.38;4449592;32;33957;-83
2023/12/31 02:26:46;;;;;;;0.30;0.28;;;;;;;4.24;63.57;100109.44;4447782;32;34005;-83
2023/12/31 02:29:14;;;;;;;0.45;0.40;;;;;;;4.28;63.56;100112.00;4463525;32;33931;-83
2023/12/31 02:31:42;;;;;;;2.20;2.00;;;;;;;4.15;64.46;100120.88;4448513;32;33904;-83
2023/12/31 02:34:11;;;;;;;0.68;0.68;;;;;;;4.29;64.30;100110.25;4452636;32;33027;-83
2023/12/31 02:36:39;;;;;;;0.32;0.30;;;;;;;4.36;64.17;100110.12;4438199;32;32680;-81
2023/12/31 02:39:06;;;;;;;0.93;0.90;;;;;;;4.24;64.30;100110.31;4448548;32;31960;-81
2023/12/31 02:41:34;;;;;;;1.23;1.17;;;;;;;4.30;64.05;100109.34;4462150;32;33613;-81
2023/12/31 02:44:02;;;;;;;0.20;0.20;;;;;;;4.34;64.08;100122.34;4449588;32;32805;-81
2023/12/31 02:46:30;;;;;;;1.45;1.35;;;;;;;4.25;63.87;100109.41;4442685;32;33361;-81
2023/12/31 02:48:57;;;;;;;0.80;0.80;;;;;;;4.44;63.62;100103.94;4473076;32;34523;-81
2023/12/31 02:51:25;;;;;;;0.98;0.98;;;;;;;4.20;64.09;100103.38;4449740;32;33623;-81
2023/12/31 02:53:53;;;;;;;0.82;0.82;;;;;;;4.36;64.06;100104.03;4450738;32;33231;-81
2023/12/31 02:56:22;;;;;;;0.00;0.00;;;;;;;4.30;63.76;100104.97;4476681;32;33029;-81
2023/12/31 02:58:50;;;;;;;1.45;0.88;;;;;;;4.22;64.31;100096.38;4447133;32;33805;-81
2023/12/31 03:01:17;;;;;;;2.72;2.53;;;;;;;4.17;64.19;100097.31;4448391;32;34064;-80
2023/12/31 03:03:45;;;;;;;0.30;0.30;;;;;;;4.22;64.14;100090.28;4452330;32;33653;-79
2023/12/31 03:06:15;;;;;;;0.70;0.70;;;;;;;4.23;63.70;100092.03;4462428;32;33692;-79
2023/12/31 03:08:42;;;;;;;1.15;1.15;;;;;;;4.25;64.04;100096.34;4449442;32;33605;-79
2023/12/31 03:11:10;;;;;;;0.57;0.57;;;;;;;4.05;64.41;100103.56;4448205;32;34749;-79
2023/12/31 03:13:38;;;;;;;0.30;0.28;;;;;;;4.11;64.53;100099.13;4446933;32;35912;-80
2023/12/31 03:16:06;;;;;;;0.52;0.28;;;;;;;4.07;63.91;100096.56;4443507;32;32402;-83
2023/12/31 03:18:33;;;;;;;2.10;1.95;;;;;;;4.05;63.72;100090.50;4465214;32;32307;-84
2023/12/31 03:21:01;;;;;;;1.23;1.23;;;;;;;3.90;64.37;100088.97;4437501;32;34386;-84
2023/12/31 03:23:30;;;;;;;2.75;2.55;;;;;;;3.87;64.47;100088.13;4450826;32;33034;-83
2023/12/31 03:25:58;;;;;;;1.92;1.77;;;;;;;3.99;64.27;100085.38;4460778;32;34035;-84
2023/12/31 03:28:25;;;;;;;2.00;1.80;;;;;;;4.10;63.71;100081.72;4471757;32;32657;-84
2023/12/31 03:30:53;;;;;;;0.37;0.37;;;;;;;4.17;63.42;100074.66;4446909;32;32705;-84
2023/12/31 03:33:21;;;;;;;1.70;1.60;;;;;;;4.19;63.24;100077.28;4446136;32;33877;-84
2023/12/31 03:35:48;;;;;;;1.75;1.65;;;;;;;4.00;63.59;100079.25;4455194;32;34023;-84
2023/12/31 03:38:18;;;;;;;1.20;0.77;;;;;;;4.20;63.02;100077.25;4462416;32;33673;-84
2023/12/31 03:40:46;;;;;;;1.62;1.52;;;;;;;4.23;63.06;100077.22;4457022;32;32830;-83
2023/12/31 03:43:15;;;;;;;1.05;1.00;;;;;;;3.95;63.81;100073.22;4453648;32;32965;-83
2023/12/31 03:45:42;;;;;;;1.48;1.37;;;;;;;3.87;63.83;100068.09;4449784;32;32936;-80
2023/12/31 03:48:12;;;;;;;0.10;0.10;;;;;;;4.05;63.36;100067.00;4461631;32;32765;-80
2023/12/31 03:50:40;;;;;;;1.92;1.83;;;;;;;3.96;63.07;100067.97;4461323;32;33905;-80
2023/12/31 03:53:07;;;;;;;4.53;2.78;;;;;;;3.96;62.57;100067.97;4461656;32;34221;-80
2023/12/31 03:55:35;;;;;;;2.97;2.75;;;;;;;4.01;62.82;100070.53;4449276;32;33041;-80
2023/12/31 03:58:03;;;;;;;2.83;2.62;;;;;;;4.19;62.12;100056.38;4449381;32;33764;-79
2023/12/31 04:00:31;;;;;;;0.60;0.60;;;;;;;4.03;62.90;100058.28;4445862;32;33585;-80
2023/12/31 04:02:59;;;;;;;1.77;1.05;;;;;;;4.06;62.86;100060.87;4462698;32;33491;-80
2023/12/31 04:05:27;;;;;;;0.88;0.88;;;;;;;3.89;62.98;100060.22;4466839;32;34000;-81
2023/12/31 04:07:55;;;;;;;2.50;2.30;;;;;;;3.87;63.38;100054.16;4441062;32;32632;-82
2023/12/31 04:10:23;;;;;;;0.20;0.20;;;;;;;3.84;63.34;100060.28;4461381;32;33973;-82
2023/12/31 04:12:51;;;;;;;1.65;1.10;;;;;;;3.83;62.83;100059.41;4447072;32;32902;-82
2023/12/31 04:15:18;;;;;;;0.10;0.10;;;;;;;3.98;62.57;100060.09;4463037;32;32277;-82
2023/12/31 04:17:46;;;;;;;1.00;1.00;;;;;;;3.83;63.15;100062.03;4461030;32;33935;-80
2023/12/31 04:20:15;;;;;;;0.28;0.28;;;;;;;3.79;62.97;100060.31;4446003;32;33543;-80
2023/12/31 04:22:43;;;;;;;1.90;1.80;;;;;;;3.78;63.11;100053.38;4465472;32;33378;-81
2023/12/31 04:25:11;;;;;;;2.15;1.98;;;;;;;3.72;62.86;100063.91;4451892;32;33137;-80
2023/12/31 04:27:40;;;;;;;2.15;1.17;;;;;;;3.81;63.24;100063.81;4445032;32;32471;-81
2023/12/31 04:30:10;;;;;;;0.35;0.35;;;;;;;3.81;62.41;100053.34;4460254;32;33869;-81
2023/12/31 04:32:38;;;;;;;0.77;0.77;;;;;;;3.77;62.85;100056.03;4463327;32;32947;-81
2023/12/31 04:35:06;;;;;;;2.25;1.27;;;;;;;3.69;63.46;100060.47;4461095;32;33000;-81
2023/12/31 04:37:34;;;;;;;0.50;0.50;;;;;;;3.72;63.26;100073.50;4461605;32;34243;-81
2023/12/31 04:40:03;;;;;;;3.00;2.62;;;;;;;3.83;62.82;100062.03;4453038;32;34341;-81
2023/12/31 04:42:31;;;;;;;1.37;1.27;;;;;;;4.05;61.00;100061.78;4447714;32;32764;-80
2023/12/31 04:45:04;;;;;;;1.50;1.40;;;;;;;3.64;62.94;100060.50;4449661;32;33227;-81
2023/12/31 04:47:37;;;;;;;2.08;1.98;;;;;;;3.69;62.78;100069.16;4462031;32;33881;-81
2023/12/31 04:50:06;;;;;;;2.12;1.45;;;;;;;3.48;63.13;100067.66;4461391;32;34695;-81
2023/12/31 04:52:34;;;;;;;2.30;1.98;;;;;;;3.67;62.54;100060.50;4453742;32;33541;-81
2023/12/31 04:55:01;;;;;;;1.20;1.20;;;;;;;3.55;63.09;100065.84;4455630;32;32707;-81
2023/12/31 04:57:30;;;;;;;0.50;0.50;;;;;;;3.48;63.44;100053.75;4446447;32;33027;-80
2023/12/31 04:59:58;;;;;;;1.35;1.25;;;;;;;3.56;63.07;100051.91;4447752;32;34650;-81
2023/12/31 05:02:27;;;;;;;1.00;1.00;;;;;;;3.72;62.52;100048.25;4447228;32;33344;-80
2023/12/31 05:04:54;;;;;;;2.53;1.67;;;;;;;3.60;63.55;100058.81;4448246;32;34099;-80
2023/12/31 05:07:22;;;;;;;2.47;2.30;;;;;;;3.56;63.06;100047.56;4447163;32;32956;-82
2023/12/31 05:09:50;;;;;;;0.17;0.17;;;;;;;3.71;62.75;100048.28;4446247;32;32426;-82
2023/12/31 05:12:17;;;;;;;0.88;0.80;;;;;;;3.55;63.35;100044.94;4459412;32;33674;-81
2023/12/31 05:14:45;;;;;;;0.85;0.85;;;;;;;3.56;63.18;100054.50;4461590;32;33617;-82
2023/12/31 05:17:13;;;;;;;0.55;0.52;;;;;;;3.73;62.97;100056.94;4435349;32;32721;-82
2023/12/31 05:19:41;;;;;;;2.45;2.05;;;;;;;3.70;62.86;100052.59;4460913;32;32857;-82
2023/12/31 05:22:09;;;;;;;2.10;2.00;;;;;;;3.68;61.93;100051.78;4445539;32;32341;-82
2023/12/31 05:24:37;;;;;;;4.68;3.20;;;;;;;3.55;62.42;100050.16;4460940;32;33069;-82
2023/12/31 05:27:04;;;;;;;2.12;1.55;;;;;;;3.45;63.21;100048.53;4449954;32;34240;-82
2023/12/31 05:29:32;;;;;;;1.05;1.05;;;;;;;3.48;63.09;100043.31;4462348;32;33112;-82
2023/12/31 05:32:00;;;;;;;0.60;0.52;;;;;;;3.45;63.25;100032.88;4449887;32;34216;-82
2023/12/31 05:34:27;;;;;;;1.20;1.20;;;;;;;3.46;63.45;100034.59;4438740;32;32860;-82
2023/12/31 05:36:55;;;;;;;1.52;0.80;;;;;;;3.43;62.75;100040.75;4461732;32;33771;-82
2023/12/31 05:39:23;;;;;;;0.28;0.28;;;;;;;3.39;63.24;100038.19;4440296;32;32668;-82
2023/12/31 05:41:50;;;;;;;3.60;2.70;;;;;;;3.45;63.20;100033.75;4469668;32;33533;-82
2023/12/31 05:44:18;;;;;;;1.10;0.88;;;;;;;3.40;63.49;100039.91;4441543;32;33658;-82
2023/12/31 05:46:46;;;;;;;0.47;0.47;;;;;;;3.73;61.55;100042.12;4461482;32;33831;-82
2023/12/31 05:49:13;;;;;;;3.90;2.78;;;;;;;3.48;63.12;100035.47;4454262;32;33382;-81
2023/12/31 05:51:41;;;;;;;0.20;0.20;;;;;;;3.57;61.73;100043.22;4447405;32;34016;-81
2023/12/31 05:54:09;;;;;;;1.08;1.08;;;;;;;3.66;61.80;100040.50;4468096;32;33046;-84
2023/12/31 05:56:37;;;;;;;1.75;1.70;;;;;;;3.66;60.61;100043.09;4453994;32;33781;-83
2023/12/31 05:59:05;;;;;;;1.08;1.05;;;;;;;3.29;62.02;100043.50;4451913;32;33841;-83
2023/12/31 06:01:32;;;;;;;1.10;0.73;;;;;;;3.26;62.47;100043.50;4462429;32;33884;-83
2023/12/31 06:04:01;;;;;;;1.12;0.30;;;;;;;3.32;62.83;100048.69;4453549;32;33898;-82
2023/12/31 06:06:33;;;;;;;1.05;1.00;;;;;;;3.27;62.86;100047.84;4451175;32;33310;-82
2023/12/31 06:09:02;;;;;;;0.52;0.52;;;;;;;3.41;62.25;100039.00;4460659;32;33716;-82
2023/12/31 06:11:30;;;;;;;0.37;0.37;;;;;;;3.45;61.85;100038.09;4441739;32;33117;-82
2023/12/31 06:13:57;;;;;;;0.75;0.75;;;;;;;3.22;62.92;100041.81;4446515;32;33511;-82
2023/12/31 06:16:25;;;;;;;1.17;1.10;;;;;;;3.24;62.68;100034.84;4450087;32;32881;-82
2023/12/31 06:18:53;;;;;;;0.65;0.65;;;;;;;3.29;62.65;100032.19;4449407;32;33689;-82
2023/12/31 06:21:20;;;;;;;0.73;0.68;;;;;;;3.34;62.53;100035.62;4466794;32;33494;-82
2023/12/31 06:23:48;;;;;;;0.98;0.98;;;;;;;3.32;62.61;100032.16;4465586;32;31918;-83
2023/12/31 06:26:16;;;;;;;0.65;0.65;;;;;;;3.40;62.79;100029.47;4446428;32;33386;-82
2023/12/31 06:28:44;;;;;;;0.75;0.75;;;;;;;3.48;62.28;100032.88;4468863;32;34412;-83
2023/12/31 06:31:12;;;;;;;0.90;0.82;;;;;;;3.47;62.42;100026.78;4450975;32;34141;-83
2023/12/31 06:33:39;;;;;;;1.58;1.48;;;;;;;3.34;62.20;100025.19;4438675;32;32481;-82
2023/12/31 06:36:07;;;;;;;2.17;2.05;;;;;;;3.25;62.75;100028.75;4448945;32;34296;-84
2023/12/31 06:38:35;;;;;;;2.17;2.08;;;;;;;3.14;63.50;100033.22;4461348;32;34497;-84
2023/12/31 06:41:07;;;;;;;0.62;0.62;;;;;;;3.34;62.79;100026.03;4434602;32;34328;-82
2023/12/31 06:43:35;;;;;;;0.25;0.25;;;;;;;3.26;62.90;100027.84;4437216;32;32650;-83
2023/12/31 06:46:03;;;;;;;3.83;1.67;;;;;;;3.46;62.30;100029.38;4454748;32;33701;-83
2023/12/31 06:48:31;;;;;;;1.02;1.02;;;;;;;3.21;62.33;100021.81;4436959;32;33030;-83
2023/12/31 06:50:59;;;;;;;2.85;2.65;;;;;;;3.38;62.33;100019.03;4447930;32;34043;-83
2023/12/31 06:53:26;;;;;;;2.47;1.35;;;;;;;3.27;62.32;100021.75;4453627;32;33863;-83
2023/12/31 06:55:54;;;;;;;5.25;0.93;;;;;;;3.59;61.62;100026.63;4448460;32;34216;-83
2023/12/31 06:58:22;;;;;;;1.08;1.05;;;;;;;3.23;62.58;100027.00;4450627;32;34042;-84
2023/12/31 07:00:50;;;;;;;1.08;1.02;;;;;;;3.21;63.14;100029.66;4438710;32;33130;-83
2023/12/31 07:03:18;;;;;;;0.82;0.82;;;;;;;3.52;61.75;100029.34;4464707;32;33004;-83
2023/12/31 07:05:47;;;;;;;2.00;1.77;;;;;;;3.22;63.33;100026.16;4449762;32;34303;-83
2023/12/31 07:08:16;;;;;;;4.12;3.78;;;;;;;3.21;64.52;100026.19;4462323;32;33666;-82
2023/12/31 07:10:44;;;;;;;0.73;0.73;;;;;;;3.36;65.71;100017.31;4462784;32;34113;-83
2023/12/31 07:13:11;;;;;;;0.75;0.75;;;;;;;3.55;67.22;100024.06;4449909;32;31943;-83
2023/12/31 07:15:39;;;;;;;1.23;1.12;;;;;;;3.88;66.59;100011.47;4463072;32;34073;-83
2023/12/31 07:18:07;;;;;;;1.52;1.42;;;;;;;4.27;64.39;100010.94;4440105;32;33839;-82
2023/12/31 07:20:35;;;;;;;1.37;1.30;;;;;;;4.03;65.91;100022.56;4472531;32;33608;-82
2023/12/31 07:23:03;;;;;;;2.17;1.58;;;;;;;4.13;66.67;100020.72;4448863;32;32879;-83
2023/12/31 07:25:32;;;;;;;1.35;1.25;;;;;;;4.29;67.55;100017.00;4459258;32;34512;-84
2023/12/31 07:28:00;;;;;;;1.23;1.23;;;;;;;4.27;68.48;100017.88;4437590;32;34332;-83
2023/12/31 07:30:28;;;;;;;11.82;1.35;;;;;;;4.31;69.33;100009.97;4435555;32;34185;-83
2023/12/31 07:32:55;;;;;;;1.37;1.27;;;;;;;4.45;69.15;100017.63;4453619;32;33396;-83
2023/12/31 07:35:23;;;;;;;2.53;2.33;;;;;;;4.50;70.00;100021.03;4463156;32;33887;-83
2023/12/31 07:37:52;;;;;;;1.10;1.10;;;;;;;4.78;69.43;100016.22;4452676;32;33858;-84
2023/12/31 07:40:19;;;;;;;0.60;0.60;;;;;;;4.92;69.27;100004.66;4451396;32;34664;-84
2023/12/31 07:42:49;;;;;;;0.85;0.82;;;;;;;5.08;69.72;100011.34;4450779;32;32485;-84
2023/12/31 07:45:17;;;;;;;0.68;0.68;;;;;;;5.27;68.83;100010.13;4463564;32;33919;-83
2023/12/31 07:47:46;;;;;;;1.37;1.27;;;;;;;5.24;69.35;100007.56;4464946;32;34726;-84
2023/12/31 07:50:14;;;;;;;1.58;1.52;;;;;;;5.30;70.04;100001.34;4450015;32;34411;-84
2023/12/31 07:52:42;;;;;;;1.98;1.87;;;;;;;5.54;68.86;99998.25;4452380;32;32830;-84
2023/12/31 07:55:10;;;;;;;0.88;0.88;;;;;;;5.66;68.83;99994.53;4460481;32;33164;-81
2023/12/31 07:57:38;;;;;;;0.98;0.77;;;;;;;5.55;69.39;100002.59;4462604;32;32796;-81
2023/12/31 08:00:07;;;;;;;0.95;0.95;;;;;;;5.75;68.29;100003.97;4438021;32;32787;-82
2023/12/31 08:02:39;;;;;;;1.67;1.37;;;;;;;5.84;68.75;99998.50;4451844;32;32322;-81
2023/12/31 08:05:07;;;;;;;5.37;2.10;;;;;;;6.00;67.62;99996.47;4451689;32;32911;-81
2023/12/31 08:07:34;;;;;;;1.33;1.33;;;;;;;5.67;69.85;99998.88;4461837;32;33970;-81
2023/12/31 08:10:03;;;;;;;2.75;2.55;;;;;;;5.97;68.59;99986.03;4439358;32;32211;-81
2023/12/31 08:12:32;;;;;;;0.40;0.40;;;;;;;6.16;67.95;99993.44;4447496;32;33257;-81
2023/12/31 08:14:59;;;;;;;2.08;1.98;;;;;;;6.20;67.65;99996.88;4442890;32;33768;-81
2023/12/31 08:17:27;;;;;;;0.80;0.80;;;;;;;6.18;68.08;99987.34;4463398;32;33832;-81
2023/12/31 08:19:55;;;;;;;1.58;1.42;;;;;;;6.35;67.49;99996.50;4463253;32;33681;-81
2023/12/31 08:22:23;;;;;;;2.47;2.20;;;;;;;6.18;68.24;99990.81;4461182;32;33925;-81
2023/12/31 08:24:51;;;;;;;1.23;1.15;;;;;;;6.02;68.41;99984.19;4459420;32;33612;-81
2023/12/31 08:27:19;;;;;;;1.33;1.25;;;;;;;5.98;68.73;99983.41;4449853;32;33154;-82
2023/12/31 08:29:46;;;;;;;1.35;1.35;;;;;;;5.97;69.55;99991.28;4458311;32;32885;-82
2023/12/31 08:32:18;;;;;;;2.78;2.58;;;;;;;6.19;69.32;99991.69;4447036;32;32294;-81
2023/12/31 08:34:46;;;;;;;;;;;;;;;6.58;67.85;99990.72;4465642;32;33921;-81
2023/12/31 08:37:13;;;;;;;1.95;1.50;;;;;;;6.56;67.54;99991.69;4449144;32;33973;-81
2023/12/31 08:39:41;;;;;;;1.77;0.93;;;;;;;6.36;68.47;99992.13;4472442;32;33920;-80
2023/12/31 08:42:09;;;;;;;1.33;1.25;;;;;;;6.29;69.27;99990.56;4436606;32;33434;-80
2023/12/31 08:44:37;;;;;;;1.33;1.00;;;;;;;6.32;69.82;99986.13;4459301;32;31962;-80
2023/12/31 08:47:24;;;;;;;1.90;1.70;;;;;;;6.59;69.30;99988.97;4427195;32;33701;-81
2023/12/31 08:49:51;;;;;;;2.92;2.00;;;;;;;6.61;68.85;99989.81;4445263;32;31925;-81
2023/12/31 08:52:20;;;;;;;2.22;2.08;;;;;;;6.82;68.68;99989.25;4436423;32;32470;-80
2023/12/31 08:54:49;;;;;;;1.73;1.58;;;;;;;6.62;69.70;99994.16;4423762;32;33825;-80
2023/12/31 08:57:17;;;;;;;2.67;2.47;;;;;;;6.76;69.68;99997.28;4435924;32;32891;-80
2023/12/31 08:59:44;;;;;;;3.15;2.95;;;;;;;6.89;69.35;99998.72;4437453;32;33885;-80
2023/12/31 09:02:12;;;;;;;0.95;0.95;;;;;;;7.13;68.77;99996.34;4436199;32;34050;-80
2023/12/31 09:04:40;;;;;;;1.48;1.40;;;;;;;7.00;69.22;99989.69;4423414;32;33197;-80
2023/12/31 09:07:08;;;;;;;0.93;0.88;;;;;;;7.02;69.35;99987.88;4448713;32;33643;-81
2023/12/31 09:09:35;;;;;;;2.67;2.17;;;;;;;6.83;70.71;99983.09;4422471;32;34058;-79
2023/12/31 09:12:03;;;;;;;2.20;2.08;;;;;;;6.61;72.06;99987.19;4432016;32;32474;-79
2023/12/31 09:14:32;;;;;;;1.65;1.55;;;;;;;6.47;72.34;99984.88;4428720;32;34252;-78
2023/12/31 09:17:00;;;;;;;2.90;2.67;;;;;;;7.09;70.36;99981.56;4433823;32;34229;-78
2023/12/31 09:19:27;;;;;;;3.28;3.05;;;;;;;6.80;71.57;99977.94;4434809;32;33045;-78
2023/12/31 09:21:55;;;;;;;6.10;3.35;;;;;;;6.78;70.80;99971.84;4447112;32;34630;-78
2023/12/31 09:24:24;;;;;;;2.87;2.47;;;;;;;6.78;71.70;99969.22;4434331;32;35361;-78
2023/12/31 09:26:52;;;;;;;3.62;3.22;;;;;;;6.98;71.27;99976.63;4425220;32;31878;-78
2023/12/31 09:29:19;;;;;;;1.12;1.12;;;;;;;7.15;69.83;99973.53;4429860;32;32831;-78
2023/12/31 09:31:48;;;;;;;3.95;2.53;;;;;;;6.81;71.25;99963.91;4422977;32;34133;-78
2023/12/31 09:34:16;;;;;;;4.28;2.87;;;;;;;6.85;72.01;99951.59;4432894;32;33008;-79
2023/12/31 09:36:45;;;;;;;2.50;2.40;;;;;;;6.84;72.36;99947.25;4433444;32;34212;-78
2023/12/31 09:39:14;;;;;;;4.97;4.65;;;;;;;7.02;70.91;99945.88;4431395;32;33848;-78
2023/12/31 09:41:41;;;;;;;3.60;3.30;;;;;;;6.97;71.73;99945.13;4432677;32;33922;-78
2023/12/31 09:44:09;;;;;;;4.37;2.58;;;;;;;7.00;71.99;99939.81;4419153;32;33076;-78
2023/12/31 09:46:38;;;;;;;2.08;1.98;;;;;;;6.93;71.87;99937.34;4451662;32;33230;-79
2023/12/31 09:49:06;;;;;;;1.85;1.75;;;;;;;6.84;72.67;99932.34;4433569;32;33092;-78
2023/12/31 09:51:34;;;;;;;3.53;3.33;;;;;;;6.77;73.31;99929.91;4447627;32;31540;-79
2023/12/31 09:54:04;;;;;;;3.60;3.35;;;;;;;6.86;73.19;99925.28;4431419;32;33388;-79
2023/12/31 09:56:34;;;;;;;2.58;2.47;;;;;;;7.16;72.92;99917.47;4445713;32;33913;-79
2023/12/31 09:59:02;;;;;;;5.45;4.95;;;;;;;7.37;72.50;99909.00;4459149;32;34051;-78
2023/12/31 10:01:35;;;;;;;1.17;1.17;;;;;;;7.08;72.46;99929.97;4443747;32;31104;-79
2023/12/31 10:04:03;;;;;;;2.40;2.30;;;;;;;7.41;72.25;99926.41;4459875;32;34282;-79
2023/12/31 10:06:32;;;;;;;1.77;1.62;;;;;;;7.51;72.20;99926.13;4457198;32;33628;-79
2023/12/31 10:09:01;;;;;;;4.57;4.25;;;;;;;7.91;70.12;99924.00;4457905;32;33971;-78
2023/12/31 10:11:29;;;;;;;5.30;2.58;;;;;;;7.89;70.33;99920.59;4456506;32;34299;-79
2023/12/31 10:13:57;;;;;;;3.35;3.12;;;;;;;7.57;71.12;99910.19;4447657;32;33853;-78
2023/12/31 10:16:40;;;;;;;9.10;3.42;;;;;;;7.55;72.02;99898.84;4459719;32;33769;-78
2023/12/31 10:19:08;;;;;;;2.75;2.35;;;;;;;7.44;72.59;99891.28;4462014;32;33201;-82
2023/12/31 10:21:36;;;;;;;2.58;1.05;;;;;;;7.46;72.93;99875.50;4461334;32;33887;-83
2023/12/31 10:24:04;;;;;;;2.00;1.87;;;;;;;7.54;72.80;99882.22;4446532;32;34991;-79
2023/12/31 10:26:33;;;;;;;4.65;2.75;;;;;;;7.37;74.11;99869.59;4447934;32;34197;-79
2023/12/31 10:29:01;;;;;;;1.75;1.65;;;;;;;6.96;74.82;99864.66;4448747;32;33434;-79
2023/12/31 10:31:29;;;;;;;7.55;3.95;;;;;;;7.16;75.01;99864.94;4449401;32;31908;-79
2023/12/31 10:34:09;;;;;;;2.90;0.93;;;;;;;7.27;74.02;99852.38;4461901;32;33752;-79
2023/12/31 10:36:36;;;;;;;2.72;2.47;;;;;;;7.21;74.68;99844.66;4448474;32;34195;-79
2023/12/31 10:39:05;;;;;;;2.55;2.37;;;;;;;7.38;73.55;99850.28;4438721;32;33736;-80
2023/12/31 10:41:35;;;;;;;2.95;2.75;;;;;;;7.48;73.28;99855.28;4460052;32;33185;-79
2023/12/31 10:44:07;;;;;;;3.05;2.83;;;;;;;7.34;73.92;99853.91;4448425;32;34099;-79
2023/12/31 10:46:36;;;;;;;8.68;3.58;;;;;;;7.41;74.05;99842.34;4462044;32;34056;-79
2023/12/31 10:49:05;;;;;;;3.40;3.15;;;;;;;7.68;73.28;99831.88;4438894;32;32159;-79
2023/12/31 10:51:35;;;;;;;5.47;3.10;;;;;;;7.83;72.78;99831.41;4458178;32;31825;-79
2023/12/31 10:54:08;;;;;;;5.22;3.33;;;;;;;7.47;73.73;99822.88;4460579;32;34699;-79
2023/12/31 10:56:39;;;;;;;2.30;2.10;;;;;;;7.70;73.37;99824.81;4460445;32;34360;-80
2023/12/31 10:59:10;;;;;;;13.43;3.80;;;;;;;7.90;72.68;99811.03;4453109;32;34026;-81
2023/12/31 11:01:46;;;;;;;2.50;2.30;;;;;;;8.09;71.94;99817.37;4438493;32;32641;-79
2023/12/31 11:04:21;;;;;;;3.95;2.12;;;;;;;8.08;71.72;99793.78;4463320;32;35651;-81
2023/12/31 11:06:49;;;;;;;2.42;2.25;;;;;;;8.31;70.62;99793.88;4447256;32;34037;-79
2023/12/31 11:09:18;;;;;;;2.72;2.50;;;;;;;7.89;72.03;99789.13;4463101;32;34756;-81
2023/12/31 11:11:45;;;;;;;3.72;3.00;;;;;;;8.14;71.29;99786.53;4444810;32;32567;-81
2023/12/31 11:14:18;;;;;;;4.43;4.05;;;;;;;7.84;72.38;99788.44;4446147;32;33289;-80
2023/12/31 11:16:59;;;;;;;3.05;2.85;;;;;;;8.08;71.80;99778.00;4449479;32;34315;-81
2023/12/31 11:19:49;;;;;;;2.62;2.12;;;;;;;8.41;70.83;99776.88;4460026;32;33091;-81
2023/12/31 11:22:33;;;;;;;1.62;1.50;;;;;;;8.30;71.58;99772.84;4450956;32;32772;-81
2023/12/31 11:25:06;;;;;;;2.65;1.45;;;;;;;8.43;70.90;99763.66;4447575;32;33525;-81
2023/12/31 11:27:36;;;;;;;2.80;2.60;;;;;;;8.44;70.83;99753.06;4450039;32;33953;-81
2023/12/31 11:30:12;;;;;;;4.70;3.75;;;;;;;8.78;69.57;99749.19;4433729;32;33484;-81
2023/12/31 11:32:54;;;;;;;2.25;2.08;;;;;;;8.79;69.41;99745.69;4452719;32;33659;-82
2023/12/31 11:35:45;;;;;;;4.72;4.30;;;;;;;8.50;70.13;99735.34;4453889;32;33882;-81
2023/12/31 11:38:21;;;;;;;4.12;3.75;;;;;;;8.40;70.69;99726.91;4459972;32;33066;-81
2023/12/31 11:41:10;;;;;;;4.40;3.15;;;;;;;8.83;69.22;99734.13;4451956;32;33781;-81
2023/12/31 11:43:41;;;;;;;3.83;3.28;;;;;;;8.84;69.62;99722.66;4422854;32;32920;-80